createdAt,value
2022-10-30T00:00:34.330Z,14.87
2022-10-30T00:03:02.546Z,14.84
2022-10-30T00:05:30.765Z,14.81
2022-10-30T00:07:59.723Z,14.73
2022-10-30T00:10:29.168Z,14.71
2022-10-30T00:12:57.954Z,14.72
2022-10-30T00:15:25.733Z,14.60
2022-10-30T00:17:54.316Z,14.46
2022-10-30T00:20:22.136Z,14.45
2022-10-30T00:22:49.901Z,14.45
2022-10-30T00:25:17.788Z,14.39
2022-10-30T00:27:46.919Z,14.42
2022-10-30T00:30:15.446Z,14.17
2022-10-30T00:32:43.873Z,14.26
2022-10-30T00:35:11.741Z,14.19
2022-10-30T00:37:39.816Z,14.13
2022-10-30T00:40:14.871Z,14.08
2022-10-30T00:42:43.307Z,14.10
2022-10-30T00:45:14.678Z,14.09
2022-10-30T00:47:45.093Z,14.06
2022-10-30T00:50:17.565Z,14.07
2022-10-30T00:52:49.930Z,14.00
2022-10-30T00:55:21.950Z,13.90
2022-10-30T00:57:50.667Z,13.95
2022-10-30T01:00:21.713Z,14.26
2022-10-30T01:02:51.009Z,14.25
2022-10-30T01:05:22.714Z,14.19
2022-10-30T01:07:50.527Z,14.17
2022-10-30T01:10:18.907Z,14.06
2022-10-30T01:12:49.057Z,14.07
2022-10-30T01:15:17.167Z,14.05
2022-10-30T01:18:08.380Z,14.11
2022-10-30T01:20:56.977Z,14.04
2022-10-30T01:23:38.621Z,13.83
2022-10-30T01:26:16.934Z,13.84
2022-10-30T01:28:58.809Z,13.92
2022-10-30T01:31:39.636Z,13.99
2022-10-30T01:34:19.125Z,14.02
2022-10-30T01:36:53.173Z,13.93
2022-10-30T01:39:25.061Z,13.86
2022-10-30T01:41:53.171Z,13.86
2022-10-30T01:44:25.431Z,13.83
2022-10-30T01:47:10.749Z,13.92
2022-10-30T01:50:14.557Z,13.97
2022-10-30T01:52:50.519Z,14.01
2022-10-30T01:55:30.626Z,13.88
2022-10-30T01:58:03.549Z,13.78
2022-10-30T02:00:31.301Z,13.79
2022-10-30T02:02:59.536Z,13.74
2022-10-30T02:05:37.448Z,13.68
2022-10-30T02:08:05.645Z,13.74
2022-10-30T02:10:36.049Z,13.75
2022-10-30T02:13:04.334Z,13.70
2022-10-30T02:15:33.110Z,13.62
2022-10-30T02:18:01.529Z,13.59
2022-10-30T02:20:31.239Z,13.57
2022-10-30T02:22:59.614Z,13.48
2022-10-30T02:25:28.204Z,13.53
2022-10-30T02:27:56.005Z,13.51
2022-10-30T02:30:23.783Z,13.58
2022-10-30T02:32:51.546Z,13.61
2022-10-30T02:35:19.226Z,13.70
2022-10-30T02:37:49.874Z,13.72
2022-10-30T02:40:17.846Z,13.76
2022-10-30T02:42:45.587Z,13.54
2022-10-30T02:45:13.431Z,13.49
2022-10-30T02:47:41.185Z,13.60
2022-10-30T02:50:10.308Z,13.74
2022-10-30T02:52:38.094Z,13.75
2022-10-30T02:55:09.764Z,13.70
2022-10-30T02:57:38.445Z,13.74
2022-10-30T03:00:07.446Z,13.75
2022-10-30T03:02:35.240Z,13.86
2022-10-30T03:05:02.962Z,13.97
2022-10-30T03:07:30.886Z,13.94
2022-10-30T03:09:58.684Z,14.11
2022-10-30T03:12:27.774Z,14.11
2022-10-30T03:14:55.497Z,14.18
2022-10-30T03:17:23.372Z,14.14
2022-10-30T03:19:51.462Z,14.13
2022-10-30T03:22:19.211Z,14.10
2022-10-30T03:24:46.970Z,14.33
2022-10-30T03:27:14.768Z,14.39
2022-10-30T03:29:43.860Z,14.43
2022-10-30T03:32:12.572Z,14.19
2022-10-30T03:34:40.441Z,14.08
2022-10-30T03:37:08.191Z,13.99
2022-10-30T03:39:36.123Z,13.96
2022-10-30T03:42:03.926Z,14.03
2022-10-30T03:44:31.745Z,14.09
2022-10-30T03:47:00.886Z,14.09
2022-10-30T03:49:28.613Z,14.08
2022-10-30T03:51:56.375Z,14.06
2022-10-30T03:54:24.204Z,13.99
2022-10-30T03:56:52.032Z,14.03
2022-10-30T03:59:19.776Z,13.98
2022-10-30T04:01:48.057Z,14.00
2022-10-30T04:04:17.535Z,13.96
2022-10-30T04:06:45.297Z,13.90
2022-10-30T04:09:12.985Z,13.67
2022-10-30T04:11:40.722Z,13.63
2022-10-30T04:14:08.626Z,13.52
2022-10-30T04:16:36.317Z,13.52
2022-10-30T04:19:04.048Z,13.40
2022-10-30T04:21:33.612Z,13.31
2022-10-30T04:24:01.281Z,13.28
2022-10-30T04:26:29.421Z,13.35
2022-10-30T04:28:57.250Z,13.55
2022-10-30T04:31:25.053Z,13.80
2022-10-30T04:33:52.793Z,13.92
2022-10-30T04:36:21.801Z,13.80
2022-10-30T04:38:51.350Z,13.82
2022-10-30T04:41:19.094Z,13.97
2022-10-30T04:43:49.437Z,13.92
2022-10-30T04:46:17.510Z,13.87
2022-10-30T04:48:45.302Z,13.91
2022-10-30T04:51:13.057Z,13.99
2022-10-30T04:53:41.002Z,13.81
2022-10-30T04:56:10.618Z,13.80
2022-10-30T04:58:38.445Z,13.73
2022-10-30T05:01:07.387Z,13.61
2022-10-30T05:03:36.058Z,13.60
2022-10-30T05:06:06.832Z,13.59
2022-10-30T05:08:35.107Z,13.61
2022-10-30T05:11:05.297Z,13.59
2022-10-30T05:13:34.487Z,13.61
2022-10-30T05:16:02.286Z,13.54
2022-10-30T05:18:30.147Z,13.56
2022-10-30T05:20:57.971Z,13.50
2022-10-30T05:23:25.686Z,13.48
2022-10-30T05:25:53.657Z,13.56
2022-10-30T05:28:21.483Z,13.55
2022-10-30T05:30:54.050Z,13.53
2022-10-30T05:33:23.431Z,13.57
2022-10-30T05:35:51.364Z,13.62
2022-10-30T05:38:19.163Z,13.64
2022-10-30T05:40:47.660Z,13.72
2022-10-30T05:43:15.472Z,13.65
2022-10-30T05:45:43.863Z,13.60
2022-10-30T05:48:12.913Z,13.45
2022-10-30T05:50:40.707Z,13.30
2022-10-30T05:53:08.606Z,13.35
2022-10-30T05:55:36.544Z,13.35
2022-10-30T05:58:06.521Z,13.32
2022-10-30T06:00:36.293Z,13.31
2022-10-30T06:03:06.054Z,13.43
2022-10-30T06:05:36.916Z,13.49
2022-10-30T06:08:06.402Z,13.48
2022-10-30T06:10:34.341Z,13.52
2022-10-30T06:13:03.958Z,13.62
2022-10-30T06:15:32.121Z,13.59
2022-10-30T06:18:00.777Z,13.61
2022-10-30T06:20:30.885Z,13.56
2022-10-30T06:23:02.275Z,13.47
2022-10-30T06:25:33.201Z,13.51
2022-10-30T06:28:04.590Z,13.40
2022-10-30T06:30:32.448Z,13.36
2022-10-30T06:33:00.776Z,13.29
2022-10-30T06:35:29.701Z,13.23
2022-10-30T06:38:00.067Z,13.07
2022-10-30T06:40:30.520Z,13.19
2022-10-30T06:42:59.341Z,13.20
2022-10-30T06:45:27.360Z,13.22
2022-10-30T06:47:55.384Z,13.25
2022-10-30T06:50:24.323Z,13.11
2022-10-30T06:52:52.129Z,13.16
2022-10-30T06:55:19.876Z,13.16
2022-10-30T06:57:54.788Z,13.19
2022-10-30T07:00:22.669Z,13.31
2022-10-30T07:02:58.833Z,13.39
2022-10-30T07:05:27.018Z,13.44
2022-10-30T07:07:58.047Z,13.61
2022-10-30T07:10:25.874Z,13.64
2022-10-30T07:12:57.425Z,13.59
2022-10-30T07:15:25.959Z,13.59
2022-10-30T07:17:56.053Z,13.77
2022-10-30T07:20:24.645Z,13.93
2022-10-30T07:22:52.869Z,14.06
2022-10-30T07:25:21.348Z,14.11
2022-10-30T07:27:50.658Z,14.18
2022-10-30T07:30:21.447Z,14.33
2022-10-30T07:32:58.179Z,14.51
2022-10-30T07:35:26.264Z,14.54
2022-10-30T07:37:54.373Z,14.69
2022-10-30T07:40:22.460Z,14.87
2022-10-30T07:42:50.229Z,14.94
2022-10-30T07:45:21.576Z,15.16
2022-10-30T07:47:50.209Z,15.33
2022-10-30T07:50:18.205Z,15.57
2022-10-30T07:52:45.965Z,15.72
2022-10-30T07:55:13.864Z,15.73
2022-10-30T07:57:43.113Z,15.73
2022-10-30T08:00:13.359Z,15.77
2022-10-30T08:02:42.862Z,15.78
2022-10-30T08:05:11.063Z,15.92
2022-10-30T08:07:39.834Z,16.21
2022-10-30T08:10:09.378Z,16.40
2022-10-30T08:12:38.249Z,16.51
2022-10-30T08:15:07.119Z,16.51
2022-10-30T08:17:44.642Z,16.18
2022-10-30T08:20:14.081Z,16.39
2022-10-30T08:22:46.948Z,16.50
2022-10-30T08:25:15.402Z,16.53
2022-10-30T08:27:54.594Z,16.66
2022-10-30T08:30:23.049Z,16.87
2022-10-30T08:32:52.253Z,17.00
2022-10-30T08:35:20.483Z,16.98
2022-10-30T08:37:48.730Z,17.07
2022-10-30T08:40:16.931Z,17.14
2022-10-30T08:42:52.053Z,17.16
2022-10-30T08:45:20.119Z,17.29
2022-10-30T08:47:48.140Z,17.48
2022-10-30T08:50:17.549Z,17.43
2022-10-30T08:52:48.230Z,17.60
2022-10-30T08:55:18.640Z,17.70
2022-10-30T08:57:46.694Z,17.87
2022-10-30T09:00:14.942Z,17.99
2022-10-30T09:02:42.893Z,18.08
2022-10-30T09:05:10.848Z,18.18
2022-10-30T09:07:40.061Z,18.20
2022-10-30T09:10:09.064Z,18.34
2022-10-30T09:12:38.324Z,18.54
2022-10-30T09:15:08.238Z,18.60
2022-10-30T09:17:36.501Z,18.86
2022-10-30T09:20:05.313Z,18.88
2022-10-30T09:22:33.213Z,18.94
2022-10-30T09:25:02.431Z,18.46
2022-10-30T09:27:30.225Z,18.82
2022-10-30T09:29:58.136Z,18.81
2022-10-30T09:32:26.011Z,18.72
2022-10-30T09:34:53.808Z,18.87
2022-10-30T09:37:23.371Z,19.05
2022-10-30T09:39:51.200Z,18.97
2022-10-30T09:42:45.655Z,19.25
2022-10-30T09:45:46.733Z,19.53
2022-10-30T09:48:43.417Z,19.61
2022-10-30T09:51:23.174Z,19.72
2022-10-30T09:54:03.541Z,19.85
2022-10-30T09:56:35.749Z,19.81
2022-10-30T09:59:11.997Z,19.95
2022-10-30T10:01:46.397Z,20.19
2022-10-30T10:04:26.787Z,19.79
2022-10-30T10:07:01.587Z,19.73
2022-10-30T10:09:32.262Z,20.02
2022-10-30T10:12:05.746Z,20.34
2022-10-30T10:14:39.861Z,20.56
2022-10-30T10:17:14.202Z,20.28
2022-10-30T10:19:50.095Z,20.67
2022-10-30T10:22:22.648Z,20.31
2022-10-30T10:24:50.919Z,20.33
2022-10-30T10:27:31.033Z,20.77
2022-10-30T10:30:04.594Z,21.13
2022-10-30T10:32:50.051Z,21.24
2022-10-30T10:35:29.377Z,21.35
2022-10-30T10:38:05.078Z,21.20
2022-10-30T10:40:51.297Z,21.22
2022-10-30T10:43:32.453Z,21.24
2022-10-30T10:46:23.016Z,21.72
2022-10-30T10:49:05.174Z,21.67
2022-10-30T10:51:37.293Z,21.78
2022-10-30T10:54:12.120Z,21.72
2022-10-30T10:56:43.601Z,22.03
2022-10-30T10:59:19.082Z,22.30
2022-10-30T11:01:55.272Z,22.37
2022-10-30T11:04:32.129Z,22.55
2022-10-30T11:07:03.648Z,22.31
2022-10-30T11:09:31.436Z,22.02
2022-10-30T11:11:59.400Z,22.48
2022-10-30T11:14:32.744Z,22.46
2022-10-30T11:17:11.981Z,22.96
2022-10-30T11:19:39.848Z,23.25
2022-10-30T11:22:19.965Z,23.14
2022-10-30T11:24:47.694Z,23.11
2022-10-30T11:27:26.961Z,23.30
2022-10-30T11:29:57.424Z,23.56
2022-10-30T11:32:29.224Z,23.64
2022-10-30T11:35:12.139Z,23.45
2022-10-30T11:37:41.507Z,23.18
2022-10-30T11:40:18.460Z,23.17
2022-10-30T11:42:49.508Z,23.14
2022-10-30T11:45:19.815Z,23.47
2022-10-30T11:47:49.515Z,23.58
2022-10-30T11:50:21.217Z,23.69
2022-10-30T11:52:51.823Z,24.05
2022-10-30T11:55:21.835Z,24.24
2022-10-30T11:57:52.199Z,24.17
2022-10-30T12:00:22.375Z,24.15
2022-10-30T12:02:53.454Z,23.51
2022-10-30T12:05:34.351Z,23.79
2022-10-30T12:08:29.049Z,24.06
2022-10-30T12:11:02.623Z,23.74
2022-10-30T12:13:37.465Z,23.88
2022-10-30T12:16:17.590Z,24.04
2022-10-30T12:18:58.194Z,24.28
2022-10-30T12:21:27.100Z,23.90
2022-10-30T12:23:58.791Z,24.46
2022-10-30T12:26:27.361Z,24.56
2022-10-30T12:29:00.691Z,24.13
2022-10-30T12:31:38.009Z,24.36
2022-10-30T12:34:41.370Z,24.37
2022-10-30T12:37:16.346Z,24.23
2022-10-30T12:39:52.308Z,24.40
2022-10-30T12:42:23.021Z,24.28
2022-10-30T12:44:56.419Z,24.16
2022-10-30T12:47:30.775Z,24.00
2022-10-30T12:52:43.398Z,23.98
2022-10-30T12:55:19.472Z,24.08
2022-10-30T12:57:52.073Z,24.19
2022-10-30T13:00:20.553Z,24.38
2022-10-30T13:02:56.897Z,24.05
2022-10-30T13:05:36.903Z,24.09
2022-10-30T13:08:27.254Z,24.37
2022-10-30T13:11:01.029Z,24.02
2022-10-30T13:13:33.591Z,24.36
2022-10-30T13:16:04.194Z,24.09
2022-10-30T13:18:32.957Z,23.90
2022-10-30T13:21:18.032Z,24.17
2022-10-30T13:23:52.391Z,24.43
2022-10-30T13:26:29.927Z,24.27
2022-10-30T13:29:06.993Z,24.00
2022-10-30T13:31:48.709Z,23.81
2022-10-30T13:34:29.623Z,24.17
2022-10-30T13:37:04.508Z,24.07
2022-10-30T13:39:40.386Z,24.41
2022-10-30T13:42:25.673Z,24.06
2022-10-30T13:45:06.453Z,23.92
2022-10-30T13:47:45.226Z,23.99
2022-10-30T13:50:27.749Z,23.86
2022-10-30T13:53:01.574Z,24.11
2022-10-30T13:55:32.085Z,24.23
2022-10-30T13:58:06.252Z,24.04
2022-10-30T14:00:54.677Z,23.78
2022-10-30T14:03:34.768Z,23.82
2022-10-30T14:06:12.091Z,24.00
2022-10-30T14:08:47.451Z,23.85
2022-10-30T14:11:15.854Z,23.88
2022-10-30T14:13:52.690Z,23.73
2022-10-30T14:16:36.629Z,23.57
2022-10-30T14:19:05.458Z,23.60
2022-10-30T14:21:44.840Z,23.60
2022-10-30T14:24:21.319Z,23.53
2022-10-30T14:26:55.876Z,23.73
2022-10-30T14:29:42.914Z,23.55
2022-10-30T14:32:42.964Z,23.26
2022-10-30T14:35:36.703Z,23.06
2022-10-30T14:38:35.682Z,23.27
2022-10-30T14:41:41.881Z,23.05
2022-10-30T14:44:23.867Z,23.02
2022-10-30T14:47:06.452Z,23.04
2022-10-30T14:49:51.378Z,23.17
2022-10-30T14:52:29.799Z,23.15
2022-10-30T14:55:07.135Z,23.23
2022-10-30T14:57:48.254Z,23.24
2022-10-30T15:00:48.375Z,23.27
2022-10-30T15:03:34.655Z,23.29
2022-10-30T15:06:13.174Z,23.08
2022-10-30T15:08:55.597Z,22.94
2022-10-30T15:11:38.529Z,22.87
2022-10-30T15:14:21.076Z,22.67
2022-10-30T15:16:52.250Z,22.57
2022-10-30T15:19:22.805Z,22.48
2022-10-30T15:21:53.783Z,22.35
2022-10-30T15:24:26.923Z,22.18
2022-10-30T15:27:01.090Z,22.19
2022-10-30T15:29:33.330Z,22.04
2022-10-30T15:32:03.951Z,21.92
2022-10-30T15:34:34.095Z,21.73
2022-10-30T15:37:11.793Z,21.47
2022-10-30T15:39:39.697Z,21.32
2022-10-30T15:42:07.499Z,21.14
2022-10-30T15:44:46.157Z,20.93
2022-10-30T15:47:18.676Z,20.71
2022-10-30T15:49:51.877Z,20.69
2022-10-30T15:52:23.221Z,20.59
2022-10-30T15:54:57.624Z,20.48
2022-10-30T15:58:13.127Z,20.43
2022-10-30T16:00:22.784Z,20.25
2022-10-30T16:03:01.416Z,20.16
2022-10-30T16:05:30.172Z,19.96
2022-10-30T16:07:59.908Z,19.80
2022-10-30T16:10:35.293Z,19.62
2022-10-30T16:13:04.766Z,19.66
2022-10-30T16:15:35.643Z,19.39
2022-10-30T16:18:14.708Z,19.42
2022-10-30T16:20:46.003Z,19.43
2022-10-30T16:23:15.162Z,19.38
2022-10-30T16:25:47.288Z,19.27
2022-10-30T16:28:31.315Z,19.11
2022-10-30T16:31:02.077Z,18.96
2022-10-30T16:33:32.918Z,18.95
2022-10-30T16:36:03.054Z,18.91
2022-10-30T16:38:35.199Z,18.84
2022-10-30T16:41:05.233Z,18.75
2022-10-30T16:43:34.657Z,18.71
2022-10-30T16:46:35.704Z,18.45
2022-10-30T16:49:08.343Z,18.34
2022-10-30T16:51:39.335Z,18.47
2022-10-30T16:54:08.148Z,18.36
2022-10-30T16:56:36.557Z,18.24
2022-10-30T16:59:12.997Z,18.15
2022-10-30T17:01:41.643Z,18.09
2022-10-30T17:04:17.394Z,17.87
2022-10-30T17:06:46.414Z,17.83
2022-10-30T17:09:23.291Z,17.62
2022-10-30T17:12:06.103Z,17.66
2022-10-30T17:14:45.520Z,17.49
2022-10-30T17:17:28.477Z,17.46
2022-10-30T17:20:00.687Z,17.36
2022-10-30T17:22:30.053Z,17.12
2022-10-30T17:25:01.068Z,16.89
2022-10-30T17:27:49.446Z,16.85
2022-10-30T17:30:35.998Z,16.91
2022-10-30T17:33:23.451Z,16.86
2022-10-30T17:38:22.492Z,16.68
2022-10-30T17:40:50.668Z,16.63
2022-10-30T17:43:18.503Z,16.49
2022-10-30T17:45:46.371Z,16.52
2022-10-30T17:48:16.807Z,16.39
2022-10-30T17:50:46.059Z,16.10
2022-10-30T17:53:50.539Z,16.16
2022-10-30T17:59:07.803Z,15.87
2022-10-30T18:01:36.145Z,15.88
2022-10-30T18:04:17.896Z,16.01
2022-10-30T18:06:50.103Z,15.94
2022-10-30T18:09:19.260Z,15.97
2022-10-30T18:11:47.175Z,15.90
2022-10-30T18:14:18.990Z,15.76
2022-10-30T18:18:00.483Z,15.98
2022-10-30T18:20:28.829Z,15.77
2022-10-30T18:22:56.975Z,15.79
2022-10-30T18:25:29.641Z,15.59
2022-10-30T18:27:57.573Z,15.73
2022-10-30T18:30:26.225Z,15.71
2022-10-30T18:32:54.009Z,15.74
2022-10-30T18:35:28.176Z,15.71
2022-10-30T18:37:55.978Z,15.71
2022-10-30T18:40:24.374Z,15.74
2022-10-30T18:42:53.551Z,15.72
2022-10-30T18:45:24.386Z,15.57
2022-10-30T18:47:53.368Z,15.70
2022-10-30T18:50:22.987Z,15.67
2022-10-30T18:52:51.457Z,15.53
2022-10-30T18:55:31.790Z,15.30
2022-10-30T18:58:01.917Z,15.46
2022-10-30T19:00:39.665Z,15.34
2022-10-30T19:03:18.871Z,15.10
2022-10-30T19:05:49.088Z,15.05
2022-10-30T19:08:17.063Z,15.32
2022-10-30T19:10:46.721Z,15.10
2022-10-30T19:13:19.471Z,15.00
2022-10-30T19:15:49.502Z,15.01
2022-10-30T19:18:18.795Z,15.11
2022-10-30T19:23:34.688Z,14.88
2022-10-30T19:26:02.860Z,14.95
2022-10-30T19:28:32.704Z,14.78
2022-10-30T19:31:00.818Z,14.85
2022-10-30T19:33:28.609Z,14.88
2022-10-30T19:35:57.980Z,14.89
2022-10-30T19:38:25.902Z,14.82
2022-10-30T19:40:54.391Z,14.73
2022-10-30T19:43:22.258Z,14.99
2022-10-30T19:45:55.653Z,14.85
2022-10-30T19:48:55.646Z,14.97
2022-10-30T19:51:12.587Z,14.71
2022-10-30T19:53:40.728Z,14.64
2022-10-30T19:56:11.058Z,14.42
2022-10-30T19:58:38.809Z,14.52
2022-10-30T20:01:08.353Z,14.52
2022-10-30T20:03:36.190Z,14.53
2022-10-30T20:06:04.078Z,14.52
2022-10-30T20:08:32.068Z,14.34
2022-10-30T20:11:00.915Z,14.39
2022-10-30T20:13:29.687Z,14.45
2022-10-30T20:15:59.773Z,14.49
2022-10-30T20:18:31.399Z,14.30
2022-10-30T20:21:01.088Z,14.35
2022-10-30T20:23:29.923Z,14.13
2022-10-30T20:26:01.206Z,14.27
2022-10-30T20:28:32.728Z,14.16
2022-10-30T20:31:00.945Z,14.21
2022-10-30T20:33:30.410Z,14.07
2022-10-30T20:35:58.221Z,14.05
2022-10-30T20:38:29.059Z,13.88
2022-10-30T20:40:58.350Z,14.00
2022-10-30T20:43:33.436Z,13.98
2022-10-30T20:46:02.176Z,13.96
2022-10-30T20:48:31.669Z,13.97
2022-10-30T20:51:01.388Z,13.83
2022-10-30T20:53:30.240Z,13.82
2022-10-30T20:55:58.605Z,13.90
2022-10-30T20:58:26.533Z,14.05
2022-10-30T21:00:55.245Z,14.03
2022-10-30T21:03:23.265Z,14.00
2022-10-30T21:05:56.077Z,13.87
2022-10-30T21:08:23.945Z,13.92
2022-10-30T21:10:51.794Z,13.83
2022-10-30T21:13:19.543Z,13.82
2022-10-30T21:15:47.430Z,13.77
2022-10-30T21:18:15.296Z,13.75
2022-10-30T21:20:43.222Z,13.55
2022-10-30T21:23:13.017Z,13.43
2022-10-30T21:25:40.977Z,13.34
2022-10-30T21:28:08.814Z,13.32
2022-10-30T21:30:36.798Z,13.11
2022-10-30T21:33:05.103Z,13.27
2022-10-30T21:35:32.997Z,13.21
2022-10-30T21:38:02.324Z,13.23
2022-10-30T21:40:31.583Z,13.10
2022-10-30T21:43:03.047Z,13.03
2022-10-30T21:45:32.557Z,12.89
2022-10-30T21:48:01.137Z,12.92
2022-10-30T21:50:28.946Z,12.88
2022-10-30T21:52:56.957Z,12.88
2022-10-30T21:55:24.983Z,12.88
2022-10-30T21:57:54.904Z,12.86
2022-10-30T22:00:22.993Z,12.77
2022-10-30T22:02:51.900Z,12.55
2022-10-30T22:05:19.764Z,12.50
2022-10-30T22:07:47.480Z,12.48
2022-10-30T22:10:15.256Z,12.58
2022-10-30T22:12:43.002Z,12.62
2022-10-30T22:15:12.276Z,12.62
2022-10-30T22:17:39.997Z,12.65
2022-10-30T22:20:09.388Z,12.56
2022-10-30T22:22:37.082Z,12.46
2022-10-30T22:25:05.084Z,12.40
2022-10-30T22:27:32.846Z,12.31
2022-10-30T22:30:00.582Z,12.26
2022-10-30T22:32:29.664Z,12.24
2022-10-30T22:34:58.812Z,12.26
2022-10-30T22:37:26.640Z,12.21
2022-10-30T22:39:54.383Z,12.21
2022-10-30T22:42:22.311Z,12.21
2022-10-30T22:44:50.306Z,12.55
2022-10-30T22:47:18.161Z,12.71
2022-10-30T22:49:47.267Z,12.64
2022-10-30T22:52:15.234Z,12.54
2022-10-30T22:54:43.088Z,12.24
2022-10-30T22:57:10.910Z,12.33
2022-10-30T22:59:38.777Z,12.22
2022-10-30T23:02:06.690Z,12.16
2022-10-30T23:04:34.568Z,12.11
2022-10-30T23:07:03.649Z,11.92
2022-10-30T23:09:31.626Z,12.09
2022-10-30T23:11:59.544Z,12.08
2022-10-30T23:14:27.367Z,12.00
2022-10-30T23:16:55.237Z,12.17
2022-10-30T23:19:23.035Z,12.20
2022-10-30T23:21:50.812Z,12.29
2022-10-30T23:24:19.934Z,12.42
2022-10-30T23:26:47.727Z,12.31
2022-10-30T23:29:15.531Z,12.13
2022-10-30T23:31:43.901Z,12.17
2022-10-30T23:34:13.710Z,12.17
2022-10-30T23:36:42.258Z,12.14
2022-10-30T23:39:12.300Z,12.09
2022-10-30T23:41:41.825Z,12.13
2022-10-30T23:44:12.985Z,12.19
2022-10-30T23:46:40.881Z,12.23
2022-10-30T23:49:08.767Z,12.20
2022-10-30T23:51:36.614Z,12.16
2022-10-30T23:54:04.598Z,11.99
2022-10-30T23:56:32.443Z,12.02
2022-10-30T23:59:01.682Z,12.06
